sensor_id;sensor_type;location;lat;lon;timestamp;pressure;altitude;pressure_sealevel;temperature;humidity
68380;BME280;57711;53.196;19.638;2024-02-26T00:01:05;99254.97;;;6.46;70.97
68380;BME280;57711;53.196;19.638;2024-02-26T00:03:53;99255.61;;;6.43;71.00
68380;BME280;57711;53.196;19.638;2024-02-26T00:06:22;99258.83;;;6.41;71.11
68380;BME280;57711;53.196;19.638;2024-02-26T00:08:49;99257.45;;;6.40;71.02
68380;BME280;57711;53.196;19.638;2024-02-26T00:11:16;99248.87;;;6.38;71.06
68380;BME280;57711;53.196;19.638;2024-02-26T00:13:43;99246.27;;;6.37;71.03
68380;BME280;57711;53.196;19.638;2024-02-26T00:16:10;99245.45;;;6.36;70.76
68380;BME280;57711;53.196;19.638;2024-02-26T00:18:37;99243.48;;;6.36;71.13
68380;BME280;57711;53.196;19.638;2024-02-26T00:21:04;99248.54;;;6.38;70.86
68380;BME280;57711;53.196;19.638;2024-02-26T00:23:32;99246.52;;;6.40;70.94
68380;BME280;57711;53.196;19.638;2024-02-26T00:25:59;99245.69;;;6.41;70.83
68380;BME280;57711;53.196;19.638;2024-02-26T00:28:26;99243.34;;;6.41;70.88
68380;BME280;57711;53.196;19.638;2024-02-26T00:30:54;99239.72;;;6.40;70.73
68380;BME280;57711;53.196;19.638;2024-02-26T00:33:23;99236.64;;;6.36;71.03
68380;BME280;57711;53.196;19.638;2024-02-26T00:35:50;99231.19;;;6.33;70.93
68380;BME280;57711;53.196;19.638;2024-02-26T00:38:17;99228.71;;;6.28;71.01
68380;BME280;57711;53.196;19.638;2024-02-26T00:40:44;99224.73;;;6.24;71.06
68380;BME280;57711;53.196;19.638;2024-02-26T00:43:12;99234.75;;;6.21;71.12
68380;BME280;57711;53.196;19.638;2024-02-26T00:45:39;99235.13;;;6.14;70.83
68380;BME280;57711;53.196;19.638;2024-02-26T00:48:06;99241.07;;;6.10;70.99
68380;BME280;57711;53.196;19.638;2024-02-26T00:50:34;99243.80;;;6.05;70.98
68380;BME280;57711;53.196;19.638;2024-02-26T00:53:02;99242.87;;;5.99;70.99
68380;BME280;57711;53.196;19.638;2024-02-26T00:55:29;99234.16;;;5.96;70.94
68380;BME280;57711;53.196;19.638;2024-02-26T00:57:56;99236.65;;;5.92;70.91
68380;BME280;57711;53.196;19.638;2024-02-26T01:00:23;99242.87;;;5.89;70.96
68380;BME280;57711;53.196;19.638;2024-02-26T01:02:51;99245.88;;;5.85;71.00
68380;BME280;57711;53.196;19.638;2024-02-26T01:05:18;99243.86;;;5.81;70.83
68380;BME280;57711;53.196;19.638;2024-02-26T01:07:46;99239.02;;;5.77;70.95
68380;BME280;57711;53.196;19.638;2024-02-26T01:10:13;99237.27;;;5.73;70.99
68380;BME280;57711;53.196;19.638;2024-02-26T01:12:40;99243.42;;;5.70;71.02
68380;BME280;57711;53.196;19.638;2024-02-26T01:15:08;99240.73;;;5.67;71.05
68380;BME280;57711;53.196;19.638;2024-02-26T01:17:36;99237.23;;;5.68;71.26
68380;BME280;57711;53.196;19.638;2024-02-26T01:20:04;99235.27;;;5.69;71.14
68380;BME280;57711;53.196;19.638;2024-02-26T01:22:31;99235.99;;;5.68;71.19
68380;BME280;57711;53.196;19.638;2024-02-26T01:24:58;99237.84;;;5.66;71.01
68380;BME280;57711;53.196;19.638;2024-02-26T01:27:25;99234.85;;;5.61;71.12
68380;BME280;57711;53.196;19.638;2024-02-26T01:29:54;99236.20;;;5.60;71.08
68380;BME280;57711;53.196;19.638;2024-02-26T01:32:21;99237.02;;;5.61;71.12
68380;BME280;57711;53.196;19.638;2024-02-26T01:34:49;99237.52;;;5.59;70.99
68380;BME280;57711;53.196;19.638;2024-02-26T01:37:16;99233.27;;;5.56;71.05
68380;BME280;57711;53.196;19.638;2024-02-26T01:39:43;99232.42;;;5.56;71.06
68380;BME280;57711;53.196;19.638;2024-02-26T01:42:10;99234.80;;;5.55;71.18
68380;BME280;57711;53.196;19.638;2024-02-26T01:44:38;99231.36;;;5.53;71.28
68380;BME280;57711;53.196;19.638;2024-02-26T01:47:07;99233.45;;;5.52;71.15
68380;BME280;57711;53.196;19.638;2024-02-26T01:49:37;99236.01;;;5.51;71.03
68380;BME280;57711;53.196;19.638;2024-02-26T01:52:06;99238.02;;;5.51;71.13
68380;BME280;57711;53.196;19.638;2024-02-26T01:54:35;99236.16;;;5.47;70.98
68380;BME280;57711;53.196;19.638;2024-02-26T01:57:05;99239.63;;;5.45;71.10
68380;BME280;57711;53.196;19.638;2024-02-26T01:59:34;99241.58;;;5.43;71.16
68380;BME280;57711;53.196;19.638;2024-02-26T02:02:03;99244.20;;;5.41;71.09
68380;BME280;57711;53.196;19.638;2024-02-26T02:04:32;99244.09;;;5.41;71.21
68380;BME280;57711;53.196;19.638;2024-02-26T02:07:00;99243.55;;;5.41;71.22
68380;BME280;57711;53.196;19.638;2024-02-26T02:09:28;99243.23;;;5.40;71.12
68380;BME280;57711;53.196;19.638;2024-02-26T02:11:55;99242.73;;;5.40;71.12
68380;BME280;57711;53.196;19.638;2024-02-26T02:14:23;99249.25;;;5.39;71.00
68380;BME280;57711;53.196;19.638;2024-02-26T02:16:50;99252.36;;;5.36;71.08
68380;BME280;57711;53.196;19.638;2024-02-26T02:19:18;99257.11;;;5.31;71.09
68380;BME280;57711;53.196;19.638;2024-02-26T02:21:45;99252.98;;;5.29;71.02
68380;BME280;57711;53.196;19.638;2024-02-26T02:24:12;99255.73;;;5.28;71.12
68380;BME280;57711;53.196;19.638;2024-02-26T02:26:39;99258.48;;;5.27;71.02
68380;BME280;57711;53.196;19.638;2024-02-26T02:29:07;99253.80;;;5.25;70.95
68380;BME280;57711;53.196;19.638;2024-02-26T02:31:34;99256.50;;;5.23;71.20
68380;BME280;57711;53.196;19.638;2024-02-26T02:34:01;99250.35;;;5.21;71.17
68380;BME280;57711;53.196;19.638;2024-02-26T02:36:29;99250.35;;;5.19;71.21
68380;BME280;57711;53.196;19.638;2024-02-26T02:38:56;99251.61;;;5.17;71.07
68380;BME280;57711;53.196;19.638;2024-02-26T02:41:23;99254.02;;;5.16;71.14
68380;BME280;57711;53.196;19.638;2024-02-26T02:43:50;99253.59;;;5.15;71.12
68380;BME280;57711;53.196;19.638;2024-02-26T02:46:17;99256.88;;;5.14;71.05
68380;BME280;57711;53.196;19.638;2024-02-26T02:48:45;99255.12;;;5.11;71.06
68380;BME280;57711;53.196;19.638;2024-02-26T02:51:12;99258.70;;;5.09;71.16
68380;BME280;57711;53.196;19.638;2024-02-26T02:53:40;99257.45;;;5.07;71.14
68380;BME280;57711;53.196;19.638;2024-02-26T02:56:07;99257.96;;;5.05;71.26
68380;BME280;57711;53.196;19.638;2024-02-26T02:58:34;99259.02;;;5.05;71.12
68380;BME280;57711;53.196;19.638;2024-02-26T03:01:01;99262.92;;;5.04;71.10
68380;BME280;57711;53.196;19.638;2024-02-26T03:03:28;99264.38;;;5.03;71.23
68380;BME280;57711;53.196;19.638;2024-02-26T03:05:56;99266.16;;;5.02;71.01
68380;BME280;57711;53.196;19.638;2024-02-26T03:08:24;99262.63;;;4.97;70.89
68380;BME280;57711;53.196;19.638;2024-02-26T03:10:52;99263.72;;;4.91;71.14
68380;BME280;57711;53.196;19.638;2024-02-26T03:13:20;99260.81;;;4.90;71.20
68380;BME280;57711;53.196;19.638;2024-02-26T03:15:47;99264.98;;;4.89;71.05
68380;BME280;57711;53.196;19.638;2024-02-26T03:18:14;99265.22;;;4.89;71.11
68380;BME280;57711;53.196;19.638;2024-02-26T03:20:42;99269.88;;;4.88;71.10
68380;BME280;57711;53.196;19.638;2024-02-26T03:23:09;99272.05;;;4.88;71.19
68380;BME280;57711;53.196;19.638;2024-02-26T03:25:41;99274.91;;;4.87;71.13
68380;BME280;57711;53.196;19.638;2024-02-26T03:28:08;99273.59;;;4.85;70.97
68380;BME280;57711;53.196;19.638;2024-02-26T03:30:35;99272.96;;;4.84;71.13
68380;BME280;57711;53.196;19.638;2024-02-26T03:33:02;99273.88;;;4.83;71.22
68380;BME280;57711;53.196;19.638;2024-02-26T03:35:30;99274.08;;;4.85;71.06
68380;BME280;57711;53.196;19.638;2024-02-26T03:37:57;99275.29;;;4.86;71.32
68380;BME280;57711;53.196;19.638;2024-02-26T03:40:24;99282.23;;;4.84;71.14
68380;BME280;57711;53.196;19.638;2024-02-26T03:42:51;99284.30;;;4.83;71.18
68380;BME280;57711;53.196;19.638;2024-02-26T03:45:20;99282.57;;;4.80;71.14
68380;BME280;57711;53.196;19.638;2024-02-26T03:47:48;99281.94;;;4.79;71.22
68380;BME280;57711;53.196;19.638;2024-02-26T03:50:15;99282.45;;;4.79;71.16
68380;BME280;57711;53.196;19.638;2024-02-26T03:52:43;99281.76;;;4.79;71.14
68380;BME280;57711;53.196;19.638;2024-02-26T03:55:10;99281.78;;;4.77;71.10
68380;BME280;57711;53.196;19.638;2024-02-26T03:57:37;99282.61;;;4.75;71.15
68380;BME280;57711;53.196;19.638;2024-02-26T04:00:05;99284.77;;;4.73;71.21
68380;BME280;57711;53.196;19.638;2024-02-26T04:02:39;99279.14;;;4.69;71.14
68380;BME280;57711;53.196;19.638;2024-02-26T04:05:10;99278.23;;;4.67;71.13
68380;BME280;57711;53.196;19.638;2024-02-26T04:07:37;99278.79;;;4.65;71.16
68380;BME280;57711;53.196;19.638;2024-02-26T04:10:11;99286.55;;;4.62;71.10
68380;BME280;57711;53.196;19.638;2024-02-26T04:12:39;99292.11;;;4.59;71.12
68380;BME280;57711;53.196;19.638;2024-02-26T04:15:10;99293.58;;;4.54;71.15
68380;BME280;57711;53.196;19.638;2024-02-26T04:17:38;99291.30;;;4.51;71.15
68380;BME280;57711;53.196;19.638;2024-02-26T04:20:06;99288.24;;;4.47;70.84
68380;BME280;57711;53.196;19.638;2024-02-26T04:22:33;99293.08;;;4.43;71.06
68380;BME280;57711;53.196;19.638;2024-02-26T04:25:00;99294.70;;;4.40;70.92
68380;BME280;57711;53.196;19.638;2024-02-26T04:27:28;99296.84;;;4.39;70.95
68380;BME280;57711;53.196;19.638;2024-02-26T04:29:55;99304.77;;;4.35;71.06
68380;BME280;57711;53.196;19.638;2024-02-26T04:32:22;99305.63;;;4.33;70.95
68380;BME280;57711;53.196;19.638;2024-02-26T04:34:49;99305.41;;;4.31;71.04
68380;BME280;57711;53.196;19.638;2024-02-26T04:37:17;99308.20;;;4.28;71.13
68380;BME280;57711;53.196;19.638;2024-02-26T04:39:44;99307.40;;;4.25;71.07
68380;BME280;57711;53.196;19.638;2024-02-26T04:42:14;99311.55;;;4.22;70.97
68380;BME280;57711;53.196;19.638;2024-02-26T04:44:42;99311.41;;;4.19;70.86
68380;BME280;57711;53.196;19.638;2024-02-26T04:47:09;99311.45;;;4.16;70.83
68380;BME280;57711;53.196;19.638;2024-02-26T04:49:36;99308.70;;;4.12;70.81
68380;BME280;57711;53.196;19.638;2024-02-26T04:52:03;99315.27;;;4.11;70.97
68380;BME280;57711;53.196;19.638;2024-02-26T04:54:30;99315.42;;;4.06;71.00
68380;BME280;57711;53.196;19.638;2024-02-26T04:56:58;99316.03;;;4.03;71.02
68380;BME280;57711;53.196;19.638;2024-02-26T04:59:25;99318.08;;;4.02;70.98
68380;BME280;57711;53.196;19.638;2024-02-26T05:01:53;99316.95;;;4.00;70.97
68380;BME280;57711;53.196;19.638;2024-02-26T05:04:20;99318.15;;;3.99;70.94
68380;BME280;57711;53.196;19.638;2024-02-26T05:06:47;99312.78;;;3.97;70.95
68380;BME280;57711;53.196;19.638;2024-02-26T05:09:14;99317.15;;;3.93;71.01
68380;BME280;57711;53.196;19.638;2024-02-26T05:11:42;99318.49;;;3.90;71.01
68380;BME280;57711;53.196;19.638;2024-02-26T05:14:09;99315.52;;;3.89;71.06
68380;BME280;57711;53.196;19.638;2024-02-26T05:16:36;99318.21;;;3.88;71.00
68380;BME280;57711;53.196;19.638;2024-02-26T05:19:03;99316.11;;;3.88;71.02
68380;BME280;57711;53.196;19.638;2024-02-26T05:21:30;99314.87;;;3.88;71.06
68380;BME280;57711;53.196;19.638;2024-02-26T05:23:58;99308.15;;;3.87;70.93
68380;BME280;57711;53.196;19.638;2024-02-26T05:26:25;99307.07;;;3.85;71.06
68380;BME280;57711;53.196;19.638;2024-02-26T05:28:52;99307.05;;;3.80;71.09
68380;BME280;57711;53.196;19.638;2024-02-26T05:31:19;99310.53;;;3.77;71.11
68380;BME280;57711;53.196;19.638;2024-02-26T05:33:46;99314.23;;;3.77;71.26
68380;BME280;57711;53.196;19.638;2024-02-26T05:36:18;99317.42;;;3.78;71.16
68380;BME280;57711;53.196;19.638;2024-02-26T05:38:46;99321.59;;;3.80;71.18
68380;BME280;57711;53.196;19.638;2024-02-26T05:41:17;99326.71;;;3.81;71.17
68380;BME280;57711;53.196;19.638;2024-02-26T05:43:50;99329.55;;;3.81;71.27
68380;BME280;57711;53.196;19.638;2024-02-26T05:46:18;99332.86;;;3.80;71.33
68380;BME280;57711;53.196;19.638;2024-02-26T05:48:52;99336.85;;;3.79;71.12
68380;BME280;57711;53.196;19.638;2024-02-26T05:51:20;99337.29;;;3.78;71.20
68380;BME280;57711;53.196;19.638;2024-02-26T05:53:49;99340.97;;;3.78;71.12
68380;BME280;57711;53.196;19.638;2024-02-26T05:56:22;99349.87;;;3.79;71.31
68380;BME280;57711;53.196;19.638;2024-02-26T05:58:50;99350.89;;;3.77;71.15
68380;BME280;57711;53.196;19.638;2024-02-26T06:01:17;99354.13;;;3.77;71.31
68380;BME280;57711;53.196;19.638;2024-02-26T06:03:44;99354.12;;;3.77;71.30
68380;BME280;57711;53.196;19.638;2024-02-26T06:06:12;99352.69;;;3.80;71.20
68380;BME280;57711;53.196;19.638;2024-02-26T06:08:42;99356.31;;;3.82;71.29
68380;BME280;57711;53.196;19.638;2024-02-26T06:11:09;99359.49;;;3.84;71.21
68380;BME280;57711;53.196;19.638;2024-02-26T06:13:36;99361.60;;;3.87;71.35
68380;BME280;57711;53.196;19.638;2024-02-26T06:16:04;99360.70;;;3.90;71.37
68380;BME280;57711;53.196;19.638;2024-02-26T06:18:32;99361.33;;;3.91;71.45
68380;BME280;57711;53.196;19.638;2024-02-26T06:20:59;99364.42;;;3.92;71.36
68380;BME280;57711;53.196;19.638;2024-02-26T06:23:27;99365.06;;;3.96;71.27
68380;BME280;57711;53.196;19.638;2024-02-26T06:25:54;99365.30;;;4.00;71.39
68380;BME280;57711;53.196;19.638;2024-02-26T06:28:21;99364.10;;;4.04;71.45
68380;BME280;57711;53.196;19.638;2024-02-26T06:30:48;99364.44;;;4.06;71.39
68380;BME280;57711;53.196;19.638;2024-02-26T06:33:17;99365.59;;;4.10;71.49
68380;BME280;57711;53.196;19.638;2024-02-26T06:35:44;99372.50;;;4.13;71.57
68380;BME280;57711;53.196;19.638;2024-02-26T06:38:12;99374.35;;;4.17;71.54
68380;BME280;57711;53.196;19.638;2024-02-26T06:40:40;99376.58;;;4.23;71.60
68380;BME280;57711;53.196;19.638;2024-02-26T06:43:07;99378.51;;;4.30;71.67
68380;BME280;57711;53.196;19.638;2024-02-26T06:45:34;99382.71;;;4.39;71.65
68380;BME280;57711;53.196;19.638;2024-02-26T06:48:02;99384.31;;;4.45;71.70
68380;BME280;57711;53.196;19.638;2024-02-26T06:50:29;99385.46;;;4.51;71.67
68380;BME280;57711;53.196;19.638;2024-02-26T06:52:56;99388.88;;;4.56;71.68
68380;BME280;57711;53.196;19.638;2024-02-26T06:55:23;99392.55;;;4.62;71.65
68380;BME280;57711;53.196;19.638;2024-02-26T06:57:50;99388.55;;;4.69;71.80
68380;BME280;57711;53.196;19.638;2024-02-26T07:00:18;99383.15;;;4.79;71.92
68380;BME280;57711;53.196;19.638;2024-02-26T07:02:45;99385.67;;;4.89;72.02
68380;BME280;57711;53.196;19.638;2024-02-26T07:05:12;99387.68;;;5.01;71.88
68380;BME280;57711;53.196;19.638;2024-02-26T07:07:40;99388.21;;;5.10;71.98
68380;BME280;57711;53.196;19.638;2024-02-26T07:10:08;99389.50;;;5.18;72.04
68380;BME280;57711;53.196;19.638;2024-02-26T07:12:35;99388.58;;;5.27;72.10
68380;BME280;57711;53.196;19.638;2024-02-26T07:15:02;99391.77;;;5.37;72.15
68380;BME280;57711;53.196;19.638;2024-02-26T07:17:30;99392.48;;;5.47;72.06
68380;BME280;57711;53.196;19.638;2024-02-26T07:19:57;99389.69;;;5.58;72.12
68380;BME280;57711;53.196;19.638;2024-02-26T07:22:24;99387.23;;;5.68;72.17
68380;BME280;57711;53.196;19.638;2024-02-26T07:24:51;99386.94;;;5.78;72.11
68380;BME280;57711;53.196;19.638;2024-02-26T07:27:19;99384.04;;;5.87;72.11
68380;BME280;57711;53.196;19.638;2024-02-26T07:29:48;99384.79;;;5.95;72.19
68380;BME280;57711;53.196;19.638;2024-02-26T07:32:15;99384.77;;;6.04;72.14
68380;BME280;57711;53.196;19.638;2024-02-26T07:34:43;99384.06;;;6.13;72.31
68380;BME280;57711;53.196;19.638;2024-02-26T07:37:12;99384.17;;;6.24;72.21
68380;BME280;57711;53.196;19.638;2024-02-26T07:39:39;99378.49;;;6.34;72.22
68380;BME280;57711;53.196;19.638;2024-02-26T07:42:06;99378.46;;;6.43;72.35
68380;BME280;57711;53.196;19.638;2024-02-26T07:44:34;99378.11;;;6.51;72.28
68380;BME280;57711;53.196;19.638;2024-02-26T07:47:01;99381.70;;;6.59;72.39
68380;BME280;57711;53.196;19.638;2024-02-26T07:49:28;99380.39;;;6.68;72.24
68380;BME280;57711;53.196;19.638;2024-02-26T07:51:55;99384.78;;;6.77;72.45
68380;BME280;57711;53.196;19.638;2024-02-26T07:54:25;99382.73;;;6.89;72.38
68380;BME280;57711;53.196;19.638;2024-02-26T07:56:52;99388.30;;;6.98;72.43
68380;BME280;57711;53.196;19.638;2024-02-26T07:59:19;99390.13;;;7.08;72.36
68380;BME280;57711;53.196;19.638;2024-02-26T08:01:52;99387.17;;;7.17;72.32
68380;BME280;57711;53.196;19.638;2024-02-26T08:04:24;99393.94;;;7.27;72.25
68380;BME280;57711;53.196;19.638;2024-02-26T08:06:53;99394.05;;;7.35;72.65
68380;BME280;57711;53.196;19.638;2024-02-26T08:09:21;99398.59;;;7.47;72.60
68380;BME280;57711;53.196;19.638;2024-02-26T08:11:48;99400.89;;;7.59;72.39
68380;BME280;57711;53.196;19.638;2024-02-26T08:14:15;99407.61;;;7.70;72.45
68380;BME280;57711;53.196;19.638;2024-02-26T08:16:43;99406.16;;;7.80;72.44
68380;BME280;57711;53.196;19.638;2024-02-26T08:19:09;99406.84;;;7.91;72.49
68380;BME280;57711;53.196;19.638;2024-02-26T08:21:38;99408.03;;;8.01;72.24
68380;BME280;57711;53.196;19.638;2024-02-26T08:24:05;99410.56;;;8.11;72.23
68380;BME280;57711;53.196;19.638;2024-02-26T08:26:32;99412.13;;;8.25;72.27
68380;BME280;57711;53.196;19.638;2024-02-26T08:28:59;99409.48;;;8.40;72.32
68380;BME280;57711;53.196;19.638;2024-02-26T08:31:27;99409.70;;;8.55;72.45
68380;BME280;57711;53.196;19.638;2024-02-26T08:33:55;99411.84;;;8.69;72.22
68380;BME280;57711;53.196;19.638;2024-02-26T08:36:22;99411.36;;;8.78;72.42
68380;BME280;57711;53.196;19.638;2024-02-26T08:38:49;99412.89;;;8.86;72.41
68380;BME280;57711;53.196;19.638;2024-02-26T08:41:16;99409.98;;;8.92;72.40
68380;BME280;57711;53.196;19.638;2024-02-26T08:43:43;99414.90;;;9.01;72.43
68380;BME280;57711;53.196;19.638;2024-02-26T08:46:12;99415.64;;;9.11;72.36
68380;BME280;57711;53.196;19.638;2024-02-26T08:48:40;99418.83;;;9.22;72.56
68380;BME280;57711;53.196;19.638;2024-02-26T08:51:08;99416.27;;;9.35;72.53
68380;BME280;57711;53.196;19.638;2024-02-26T08:53:36;99414.71;;;9.48;72.47
68380;BME280;57711;53.196;19.638;2024-02-26T08:56:10;99411.65;;;9.60;72.57
68380;BME280;57711;53.196;19.638;2024-02-26T08:58:45;99412.95;;;9.77;72.72
68380;BME280;57711;53.196;19.638;2024-02-26T09:01:13;99411.75;;;9.89;72.69
68380;BME280;57711;53.196;19.638;2024-02-26T09:03:40;99415.84;;;9.98;72.52
68380;BME280;57711;53.196;19.638;2024-02-26T09:06:08;99413.55;;;10.09;72.56
68380;BME280;57711;53.196;19.638;2024-02-26T09:08:35;99416.48;;;10.19;72.48
68380;BME280;57711;53.196;19.638;2024-02-26T09:11:04;99421.49;;;10.30;72.55
68380;BME280;57711;53.196;19.638;2024-02-26T09:13:31;99424.04;;;10.41;72.51
68380;BME280;57711;53.196;19.638;2024-02-26T09:15:59;99429.06;;;10.50;72.46
68380;BME280;57711;53.196;19.638;2024-02-26T09:18:26;99430.26;;;10.63;72.43
68380;BME280;57711;53.196;19.638;2024-02-26T09:20:56;99431.73;;;10.72;72.37
68380;BME280;57711;53.196;19.638;2024-02-26T09:23:23;99433.59;;;10.84;72.50
68380;BME280;57711;53.196;19.638;2024-02-26T09:25:50;99432.31;;;10.96;72.47
68380;BME280;57711;53.196;19.638;2024-02-26T09:28:17;99431.87;;;11.07;72.37
68380;BME280;57711;53.196;19.638;2024-02-26T09:30:45;99432.14;;;11.17;72.28
68380;BME280;57711;53.196;19.638;2024-02-26T09:33:13;99432.43;;;11.29;72.15
68380;BME280;57711;53.196;19.638;2024-02-26T09:35:41;99434.00;;;11.39;72.52
68380;BME280;57711;53.196;19.638;2024-02-26T09:38:08;99435.83;;;11.47;72.13
68380;BME280;57711;53.196;19.638;2024-02-26T09:40:36;99435.66;;;11.54;72.16
68380;BME280;57711;53.196;19.638;2024-02-26T09:43:05;99436.75;;;11.62;72.16
68380;BME280;57711;53.196;19.638;2024-02-26T09:45:33;99440.17;;;11.69;72.06
68380;BME280;57711;53.196;19.638;2024-02-26T09:48:02;99442.83;;;11.71;71.94
68380;BME280;57711;53.196;19.638;2024-02-26T09:50:31;99447.65;;;11.75;71.88
68380;BME280;57711;53.196;19.638;2024-02-26T09:52:59;99448.42;;;11.80;71.97
68380;BME280;57711;53.196;19.638;2024-02-26T09:55:29;99450.77;;;11.85;71.67
68380;BME280;57711;53.196;19.638;2024-02-26T09:57:57;99448.41;;;11.87;71.56
68380;BME280;57711;53.196;19.638;2024-02-26T10:00:27;99453.45;;;11.84;71.48
68380;BME280;57711;53.196;19.638;2024-02-26T10:02:56;99453.52;;;11.83;71.50
68380;BME280;57711;53.196;19.638;2024-02-26T10:05:26;99448.45;;;11.88;71.66
68380;BME280;57711;53.196;19.638;2024-02-26T10:07:53;99452.97;;;11.94;71.60
68380;BME280;57711;53.196;19.638;2024-02-26T10:10:22;99453.69;;;11.95;71.60
68380;BME280;57711;53.196;19.638;2024-02-26T10:12:49;99452.38;;;12.01;71.43
68380;BME280;57711;53.196;19.638;2024-02-26T10:15:17;99452.05;;;12.07;71.43
68380;BME280;57711;53.196;19.638;2024-02-26T10:17:44;99449.21;;;12.12;71.43
68380;BME280;57711;53.196;19.638;2024-02-26T10:20:17;99450.76;;;12.24;71.61
68380;BME280;57711;53.196;19.638;2024-02-26T10:22:45;99449.31;;;12.37;71.69
68380;BME280;57711;53.196;19.638;2024-02-26T10:25:13;99450.89;;;12.48;71.54
68380;BME280;57711;53.196;19.638;2024-02-26T10:27:41;99452.05;;;12.54;71.35
68380;BME280;57711;53.196;19.638;2024-02-26T10:32:46;99445.44;;;12.64;71.29
68380;BME280;57711;53.196;19.638;2024-02-26T10:35:17;99444.80;;;12.69;71.39
68380;BME280;57711;53.196;19.638;2024-02-26T10:37:46;99445.91;;;12.73;71.37
68380;BME280;57711;53.196;19.638;2024-02-26T10:40:14;99447.56;;;12.76;71.24
68380;BME280;57711;53.196;19.638;2024-02-26T10:42:42;99449.67;;;12.81;71.36
68380;BME280;57711;53.196;19.638;2024-02-26T10:45:10;99456.05;;;12.91;71.22
68380;BME280;57711;53.196;19.638;2024-02-26T10:47:37;99454.35;;;12.98;71.19
68380;BME280;57711;53.196;19.638;2024-02-26T10:50:06;99456.21;;;13.06;71.30
68380;BME280;57711;53.196;19.638;2024-02-26T10:52:36;99453.38;;;13.10;71.20
68380;BME280;57711;53.196;19.638;2024-02-26T10:55:05;99455.64;;;13.16;71.20
68380;BME280;57711;53.196;19.638;2024-02-26T10:57:42;99452.70;;;13.11;70.63
68380;BME280;57711;53.196;19.638;2024-02-26T11:00:15;99450.81;;;13.02;70.69
68380;BME280;57711;53.196;19.638;2024-02-26T11:02:45;99449.40;;;13.00;70.71
68380;BME280;57711;53.196;19.638;2024-02-26T11:05:14;99451.63;;;13.03;70.82
68380;BME280;57711;53.196;19.638;2024-02-26T11:07:42;99448.27;;;13.12;70.81
68380;BME280;57711;53.196;19.638;2024-02-26T11:10:11;99443.52;;;13.23;71.00
68380;BME280;57711;53.196;19.638;2024-02-26T11:12:39;99438.73;;;13.36;70.85
68380;BME280;57711;53.196;19.638;2024-02-26T11:15:08;99438.24;;;13.43;70.75
68380;BME280;57711;53.196;19.638;2024-02-26T11:17:36;99437.64;;;13.50;70.82
68380;BME280;57711;53.196;19.638;2024-02-26T11:20:09;99438.29;;;13.55;70.46
68380;BME280;57711;53.196;19.638;2024-02-26T11:22:38;99433.80;;;13.56;70.40
68380;BME280;57711;53.196;19.638;2024-02-26T11:25:06;99434.90;;;13.61;70.40
68380;BME280;57711;53.196;19.638;2024-02-26T11:27:41;99439.33;;;13.64;70.23
68380;BME280;57711;53.196;19.638;2024-02-26T11:30:11;99437.17;;;13.64;70.24
68380;BME280;57711;53.196;19.638;2024-02-26T11:32:39;99434.06;;;13.66;70.30
68380;BME280;57711;53.196;19.638;2024-02-26T11:35:07;99433.11;;;13.71;70.21
68380;BME280;57711;53.196;19.638;2024-02-26T11:37:37;99430.16;;;13.77;70.37
68380;BME280;57711;53.196;19.638;2024-02-26T11:40:13;99430.16;;;13.88;70.38
68380;BME280;57711;53.196;19.638;2024-02-26T11:42:45;99431.77;;;13.99;70.32
68380;BME280;57711;53.196;19.638;2024-02-26T11:48:16;99438.89;;;14.10;70.12
68380;BME280;57711;53.196;19.638;2024-02-26T11:50:52;99437.02;;;14.10;69.83
68380;BME280;57711;53.196;19.638;2024-02-26T11:59:04;99439.27;;;14.06;69.60
68380;BME280;57711;53.196;19.638;2024-02-26T12:04:21;99444.55;;;14.03;69.60
68380;BME280;57711;53.196;19.638;2024-02-26T12:06:56;99442.60;;;14.05;69.55
68380;BME280;57711;53.196;19.638;2024-02-26T12:09:41;99444.38;;;14.11;69.79
68380;BME280;57711;53.196;19.638;2024-02-26T12:12:10;99450.05;;;14.23;69.79
68380;BME280;57711;53.196;19.638;2024-02-26T12:14:39;99453.18;;;14.30;69.58
68380;BME280;57711;53.196;19.638;2024-02-26T12:17:19;99447.86;;;14.34;69.51
68380;BME280;57711;53.196;19.638;2024-02-26T12:19:47;99443.63;;;14.39;69.32
68380;BME280;57711;53.196;19.638;2024-02-26T12:22:14;99440.47;;;14.43;69.46
68380;BME280;57711;53.196;19.638;2024-02-26T12:24:45;99438.38;;;14.50;69.29
68380;BME280;57711;53.196;19.638;2024-02-26T12:27:13;99436.21;;;14.56;69.35
68380;BME280;57711;53.196;19.638;2024-02-26T12:29:40;99432.10;;;14.58;69.34
68380;BME280;57711;53.196;19.638;2024-02-26T12:32:07;99433.70;;;14.62;69.19
68380;BME280;57711;53.196;19.638;2024-02-26T12:34:35;99439.17;;;14.63;68.98
68380;BME280;57711;53.196;19.638;2024-02-26T12:37:02;99442.38;;;14.59;68.83
68380;BME280;57711;53.196;19.638;2024-02-26T12:39:31;99439.48;;;14.61;69.09
68380;BME280;57711;53.196;19.638;2024-02-26T12:42:04;99436.70;;;14.61;68.83
68380;BME280;57711;53.196;19.638;2024-02-26T12:44:33;99435.42;;;14.54;68.77
68380;BME280;57711;53.196;19.638;2024-02-26T12:47:03;99437.40;;;14.52;68.74
68380;BME280;57711;53.196;19.638;2024-02-26T12:49:31;99436.11;;;14.50;68.74
68380;BME280;57711;53.196;19.638;2024-02-26T12:51:59;99440.22;;;14.49;68.65
68380;BME280;57711;53.196;19.638;2024-02-26T12:54:30;99438.52;;;14.39;68.40
68380;BME280;57711;53.196;19.638;2024-02-26T12:57:09;99436.01;;;14.30;68.27
68380;BME280;57711;53.196;19.638;2024-02-26T12:59:37;99433.14;;;14.28;68.46
68380;BME280;57711;53.196;19.638;2024-02-26T13:02:05;99432.27;;;14.30;68.50
68380;BME280;57711;53.196;19.638;2024-02-26T13:04:34;99435.63;;;14.30;68.47
68380;BME280;57711;53.196;19.638;2024-02-26T13:07:06;99438.18;;;14.30;68.14
68380;BME280;57711;53.196;19.638;2024-02-26T13:09:34;99442.64;;;14.26;68.09
68380;BME280;57711;53.196;19.638;2024-02-26T13:12:06;99445.08;;;14.18;68.12
68380;BME280;57711;53.196;19.638;2024-02-26T13:14:34;99440.92;;;14.11;67.88
68380;BME280;57711;53.196;19.638;2024-02-26T13:17:01;99435.27;;;14.02;67.68